Bernice — WCY5940 — position and weather

sailwx.info

Track history (hours):
 
Tides and Currents Weather Stations Pressure Air Temp Water Temp Dewpoint Dewpoint Depression Visibility Wind Speed Wind Dir Waves Ship Positions

Bernice

Owner: KAMMERER, DAN E, PETALUMA, CA. More information available from US FCC via Universal Licensing System and Coast Guard Vessel Documentation Center.

Last reported at 2018-Jan-12 14:36 UTC. Time now 2018-Jan-23 11:57 UTC.
Position N 37°30' W 122°29'.
Warning: this ship's position is 10 days out of date.

Length 13 m.

Type: Fishing. MMSI: 367355870.

Date/timePositionNaut miles runAvg speedWind from/ knotsBaromVisibWave heightAir tempDewpointWater temp
2018-Jan-12 14:36N 37°30' W 122°29'  
2018-Jan-07 18:55N 37°30' W 122°29'0 0.0
2018-Jan-07 18:28N 37°30' W 122°29'0 0.0
2018-Jan-07 17:58N 37°30' W 122°29'0 0.0
2018-Jan-07 00:30N 37°30' W 122°29'1 1.5
2018-Jan-07 00:00N 37°29' W 122°29'3 5.6
2018-Jan-06 23:30N 37°29' W 122°32'3 6.7
2018-Jan-06 23:00N 37°31' W 122°36'4 6.5
2018-Jan-06 22:21N 37°34' W 122°40'10 1.1
2018-Jan-06 13:19N 37°29' W 122°30'1 3.8
2018-Jan-06 13:00N 37°30' W 122°29'0 0.4
2018-Jan-06 12:30N 37°30' W 122°29'  
Track history (hours):
 
Tides and Currents Weather Stations Pressure Air Temp Water Temp Dewpoint Dewpoint Depression Visibility Wind Speed Wind Dir Waves Ship Positions

Bernice

Owner: KAMMERER, DAN E, PETALUMA, CA. More information available from US FCC via Universal Licensing System and Coast Guard Vessel Documentation Center.

Last reported at 2018-Jan-12 14:36 UTC. Time now 2018-Jan-23 11:57 UTC.
Position N 37°30' W 122°29'.
Warning: this ship's position is 10 days out of date.

Length 13 m.

Type: Fishing. MMSI: 367355870.

Date/timePositionNaut miles runAvg speedWind from/ knotsBaromVisibWave heightAir tempDewpointWater temp
2018-Jan-12 14:36N 37°30' W 122°29'  
2018-Jan-07 18:55N 37°30' W 122°29'0 0.0
2018-Jan-07 18:28N 37°30' W 122°29'0 0.0
2018-Jan-07 17:58N 37°30' W 122°29'0 0.0
2018-Jan-07 00:30N 37°30' W 122°29'1 1.5
2018-Jan-07 00:00N 37°29' W 122°29'3 5.6
2018-Jan-06 23:30N 37°29' W 122°32'3 6.7
2018-Jan-06 23:00N 37°31' W 122°36'4 6.5
2018-Jan-06 22:21N 37°34' W 122°40'10 1.1
2018-Jan-06 13:19N 37°29' W 122°30'1 3.8
2018-Jan-06 13:00N 37°30' W 122°29'0 0.4
2018-Jan-06 12:30N 37°30' W 122°29'  

Dump ship's entire track history